createdAt,value
2022-08-22T00:02:10.770Z,10.52
2022-08-22T00:02:41.412Z,8.60
2022-08-22T00:02:45.175Z,7.43
2022-08-22T00:03:00.352Z,7.88
2022-08-22T00:03:01.922Z,8.07
2022-08-22T00:03:02.741Z,8.38
2022-08-22T00:05:05.565Z,9.10
2022-08-22T00:07:44.146Z,10.85
2022-08-22T00:10:35.518Z,11.10
2022-08-22T00:13:05.582Z,9.57
2022-08-22T00:15:44.278Z,10.95
2022-08-22T00:18:28.266Z,9.25
2022-08-22T00:21:25.282Z,9.73
2022-08-22T00:24:13.802Z,9.85
2022-08-22T00:26:47.056Z,10.90
2022-08-22T00:29:23.901Z,10.07
2022-08-22T00:32:07.382Z,8.60
2022-08-22T00:35:05.897Z,10.85
2022-08-22T00:37:39.486Z,11.83
2022-08-22T00:40:45.227Z,10.98
2022-08-22T00:43:20.662Z,10.10
2022-08-22T00:46:24.665Z,10.40
2022-08-22T00:49:31.465Z,10.70
2022-08-22T00:52:14.388Z,9.43
2022-08-22T00:55:00.684Z,8.70
2022-08-22T00:58:01.208Z,9.30
2022-08-22T01:00:35.082Z,10.70
2022-08-22T01:03:44.598Z,10.07
2022-08-22T01:06:19.840Z,9.50
2022-08-22T01:09:29.173Z,9.75
2022-08-22T01:12:19.887Z,9.82
2022-08-22T01:14:59.207Z,8.88
2022-08-22T01:17:37.863Z,11.00
2022-08-22T01:20:29.495Z,9.45
2022-08-22T01:23:27.966Z,11.70
2022-08-22T01:26:25.069Z,11.52
2022-08-22T01:29:31.486Z,9.85
2022-08-22T01:32:35.930Z,11.63
2022-08-22T01:35:02.445Z,11.40
2022-08-22T01:37:34.934Z,10.70
2022-08-22T01:40:35.103Z,11.23
2022-08-22T01:43:10.300Z,11.27
2022-08-22T01:45:42.426Z,10.93
2022-08-22T01:48:17.782Z,9.75
2022-08-22T01:51:00.416Z,11.38
2022-08-22T01:54:23.399Z,10.82
2022-08-22T01:56:50.060Z,10.48
2022-08-22T01:59:34.071Z,11.18
2022-08-22T02:02:15.665Z,10.48
2022-08-22T02:04:58.242Z,9.75
2022-08-22T02:08:09.817Z,10.35
2022-08-22T02:10:42.269Z,11.07
2022-08-22T02:13:14.849Z,11.20
2022-08-22T02:15:41.439Z,10.25
2022-08-22T02:18:17.352Z,11.07
2022-08-22T02:20:56.676Z,9.05
2022-08-22T02:23:25.916Z,10.50
2022-08-22T02:26:01.545Z,11.20
2022-08-22T02:31:07.010Z,10.27
2022-08-22T02:33:49.324Z,11.07
2022-08-22T02:36:22.062Z,10.45
2022-08-22T02:38:59.686Z,9.10
2022-08-22T02:41:46.769Z,10.82
2022-08-22T02:44:30.504Z,8.50
2022-08-22T02:47:26.694Z,8.95
2022-08-22T02:50:29.397Z,8.95
2022-08-22T02:53:08.978Z,8.35
2022-08-22T02:55:55.628Z,9.57
2022-08-22T02:58:59.204Z,8.55
2022-08-22T03:01:32.289Z,10.95
2022-08-22T03:04:32.568Z,11.05
2022-08-22T03:07:11.140Z,11.27
2022-08-22T03:09:46.151Z,9.07
2022-08-22T03:12:28.019Z,9.13
2022-08-22T03:15:15.375Z,9.05
2022-08-22T03:17:55.519Z,10.63
2022-08-22T03:20:45.751Z,10.00
2022-08-22T03:23:42.349Z,9.68
2022-08-22T03:28:52.672Z,10.32
2022-08-22T03:31:28.327Z,9.73
2022-08-22T03:34:13.774Z,10.93
2022-08-22T03:36:48.352Z,10.75
2022-08-22T03:39:35.077Z,11.57
2022-08-22T03:42:25.039Z,9.50
2022-08-22T03:44:51.530Z,10.75
2022-08-22T03:47:28.299Z,11.02
2022-08-22T03:50:14.357Z,10.57
2022-08-22T03:53:10.315Z,9.77
2022-08-22T03:56:06.577Z,10.00
2022-08-22T03:58:33.158Z,10.88
2022-08-22T04:01:19.644Z,9.48
2022-08-22T04:04:04.599Z,8.40
2022-08-22T04:06:48.331Z,9.88
2022-08-22T04:09:49.019Z,9.50
2022-08-22T04:12:41.121Z,10.57
2022-08-22T04:15:07.745Z,9.50
2022-08-22T04:17:42.935Z,9.25
2022-08-22T04:21:06.226Z,8.93
2022-08-22T04:23:40.422Z,10.15
2022-08-22T04:26:15.736Z,8.52
2022-08-22T04:28:58.934Z,9.77
2022-08-22T04:31:32.335Z,9.85
2022-08-22T04:34:15.275Z,9.02
2022-08-22T04:36:51.022Z,10.88
2022-08-22T04:42:32.179Z,7.82
2022-08-22T04:45:05.517Z,9.52
2022-08-22T04:47:36.766Z,8.60
2022-08-22T04:50:14.587Z,8.88
2022-08-22T04:52:48.385Z,8.68
2022-08-22T04:55:33.045Z,7.55
2022-08-22T04:58:10.758Z,8.20
2022-08-22T05:00:57.043Z,6.93
2022-08-22T05:03:26.960Z,7.88
2022-08-22T05:05:55.646Z,8.82
2022-08-22T05:08:25.837Z,8.13
2022-08-22T05:10:54.154Z,8.38
2022-08-22T05:13:39.146Z,8.07
2022-08-22T05:16:14.770Z,8.73
2022-08-22T05:21:24.496Z,7.32
2022-08-22T05:24:05.772Z,8.02
2022-08-22T05:26:43.781Z,9.00
2022-08-22T05:29:14.608Z,6.45
2022-08-22T05:31:49.959Z,6.72
2022-08-22T05:34:28.265Z,7.13
2022-08-22T05:37:17.837Z,7.60
2022-08-22T05:39:49.111Z,7.30
2022-08-22T05:42:26.564Z,6.97
2022-08-22T05:44:54.365Z,7.35
2022-08-22T05:47:33.036Z,7.53
2022-08-22T05:50:13.621Z,7.50
2022-08-22T05:53:03.009Z,7.35
2022-08-22T05:55:53.107Z,7.72
2022-08-22T05:58:40.079Z,7.72
2022-08-22T06:01:29.169Z,6.93
2022-08-22T06:04:14.269Z,6.80
2022-08-22T06:06:53.098Z,7.40
2022-08-22T06:09:24.387Z,6.55
2022-08-22T06:12:00.856Z,7.47
2022-08-22T06:14:42.231Z,7.03
2022-08-22T06:17:21.204Z,7.68
2022-08-22T06:19:51.246Z,6.65
2022-08-22T06:22:23.277Z,6.90
2022-08-22T06:24:51.957Z,8.10
2022-08-22T06:27:23.909Z,6.93
2022-08-22T06:29:59.041Z,7.97
2022-08-22T06:32:59.082Z,6.38
2022-08-22T06:35:59.623Z,6.13
2022-08-22T06:38:34.769Z,6.63
2022-08-22T06:41:07.122Z,6.78
2022-08-22T06:43:39.839Z,7.03
2022-08-22T06:46:08.423Z,6.47
2022-08-22T06:48:36.922Z,6.13
2022-08-22T06:51:08.274Z,7.05
2022-08-22T06:53:39.580Z,5.18
2022-08-22T06:56:18.472Z,6.45
2022-08-22T06:58:47.765Z,5.13
2022-08-22T07:01:19.295Z,4.45
2022-08-22T07:03:57.444Z,5.18
2022-08-22T07:06:38.311Z,5.20
2022-08-22T07:09:07.071Z,5.13
2022-08-22T07:11:39.608Z,4.57
2022-08-22T07:14:12.517Z,5.13
2022-08-22T07:16:44.982Z,5.00
2022-08-22T07:19:30.259Z,5.07
2022-08-22T07:21:58.721Z,4.57
2022-08-22T07:24:32.306Z,5.22
2022-08-22T07:27:14.097Z,3.75
2022-08-22T07:30:14.689Z,4.97
2022-08-22T07:32:54.640Z,4.50
2022-08-22T07:35:30.391Z,5.15
2022-08-22T07:38:09.797Z,4.03
2022-08-22T07:40:49.638Z,4.10
2022-08-22T07:43:41.554Z,4.82
2022-08-22T07:46:39.673Z,4.18
2022-08-22T07:49:16.688Z,5.05
2022-08-22T07:51:47.809Z,4.60
2022-08-22T07:54:20.578Z,5.13
2022-08-22T07:57:03.655Z,5.25
2022-08-22T07:59:33.285Z,4.28
2022-08-22T08:02:04.673Z,4.45
2022-08-22T08:04:39.541Z,4.97
2022-08-22T08:07:10.063Z,4.78
2022-08-22T08:09:44.513Z,4.32
2022-08-22T08:12:12.772Z,4.10
2022-08-22T08:14:45.995Z,3.63
2022-08-22T08:17:20.840Z,4.30
2022-08-22T08:19:48.427Z,4.30
2022-08-22T08:22:19.857Z,4.13
2022-08-22T08:24:48.226Z,4.47
2022-08-22T08:27:39.320Z,4.05
2022-08-22T08:30:15.970Z,3.88
2022-08-22T08:32:47.588Z,4.43
2022-08-22T08:36:01.911Z,3.70
2022-08-22T08:38:36.953Z,5.03
2022-08-22T08:41:24.446Z,3.70
2022-08-22T08:44:17.013Z,5.28
2022-08-22T08:46:57.473Z,3.60
2022-08-22T08:49:52.047Z,3.47
2022-08-22T08:52:29.862Z,4.30
2022-08-22T08:55:26.006Z,4.03
2022-08-22T09:00:52.728Z,4.18
2022-08-22T09:03:42.303Z,3.55
2022-08-22T09:06:13.466Z,3.75
2022-08-22T09:09:01.646Z,5.05
2022-08-22T09:11:57.543Z,4.63
2022-08-22T09:14:46.906Z,4.53
2022-08-22T09:17:43.961Z,4.05
2022-08-22T09:20:22.902Z,3.75
2022-08-22T09:23:12.946Z,4.50
2022-08-22T09:25:51.137Z,4.10
2022-08-22T09:28:21.081Z,4.25
2022-08-22T09:31:32.702Z,4.20
2022-08-22T09:34:30.581Z,4.63
2022-08-22T09:37:07.832Z,3.63
2022-08-22T09:39:50.983Z,4.75
2022-08-22T09:42:31.331Z,4.22
2022-08-22T09:45:06.922Z,3.85
2022-08-22T09:47:43.552Z,4.35
2022-08-22T09:50:19.820Z,4.43
2022-08-22T09:53:10.683Z,4.13
2022-08-22T09:55:52.773Z,3.20
2022-08-22T09:58:44.982Z,4.65
2022-08-22T10:01:39.041Z,3.97
2022-08-22T10:04:14.543Z,5.03
2022-08-22T10:07:12.437Z,4.68
2022-08-22T10:09:54.941Z,4.80
2022-08-22T10:12:56.494Z,5.07
2022-08-22T10:15:45.860Z,4.75
2022-08-22T10:18:54.684Z,4.80
2022-08-22T10:21:38.491Z,4.07
2022-08-22T10:24:25.743Z,4.05
2022-08-22T10:27:01.823Z,5.10
2022-08-22T10:29:46.544Z,3.83
2022-08-22T10:32:40.489Z,4.57
2022-08-22T10:35:19.143Z,5.35
2022-08-22T10:37:58.140Z,4.35
2022-08-22T10:40:57.034Z,5.00
2022-08-22T10:43:30.036Z,4.68
2022-08-22T10:46:19.824Z,6.28
2022-08-22T10:48:51.904Z,4.93
2022-08-22T10:51:46.419Z,5.57
2022-08-22T10:54:28.309Z,5.90
2022-08-22T10:57:31.082Z,6.45
2022-08-22T11:00:37.118Z,7.90
2022-08-22T11:03:47.088Z,8.68
2022-08-22T11:06:19.223Z,6.07
2022-08-22T11:09:07.426Z,6.00
2022-08-22T11:11:40.843Z,6.03
2022-08-22T11:14:19.564Z,6.22
2022-08-22T11:16:55.413Z,6.38
2022-08-22T11:19:38.820Z,8.25
2022-08-22T11:22:14.889Z,6.28
2022-08-22T11:25:15.052Z,7.47
2022-08-22T11:28:11.675Z,8.32
2022-08-22T11:31:22.810Z,6.50
2022-08-22T11:33:59.597Z,7.53
2022-08-22T11:36:39.580Z,6.95
2022-08-22T11:39:38.916Z,8.45
2022-08-22T11:42:11.954Z,5.30
2022-08-22T11:44:50.267Z,5.80
2022-08-22T11:47:26.537Z,6.28
2022-08-22T11:50:19.830Z,6.93
2022-08-22T11:53:07.632Z,6.97
2022-08-22T11:55:52.965Z,7.47
2022-08-22T11:58:33.880Z,6.28
2022-08-22T12:01:41.746Z,7.65
2022-08-22T12:04:31.352Z,8.98
2022-08-22T12:07:28.569Z,8.00
2022-08-22T12:10:14.239Z,8.35
2022-08-22T12:13:07.297Z,6.63
2022-08-22T12:15:53.939Z,7.82
2022-08-22T12:18:35.498Z,9.23
2022-08-22T12:21:14.170Z,7.15
2022-08-22T12:23:55.463Z,10.63
2022-08-22T12:26:57.691Z,9.25
2022-08-22T12:29:33.961Z,9.05
2022-08-22T12:32:44.065Z,8.90
2022-08-22T12:35:29.823Z,9.18
2022-08-22T12:38:29.122Z,8.37
2022-08-22T12:41:27.979Z,8.35
2022-08-22T12:44:16.476Z,7.43
2022-08-22T12:47:26.692Z,5.93
2022-08-22T12:50:14.437Z,7.40
2022-08-22T12:53:00.471Z,8.73
2022-08-22T12:55:39.369Z,6.55
2022-08-22T12:58:15.307Z,8.05
2022-08-22T13:00:47.595Z,9.90
2022-08-22T13:03:28.226Z,9.38
2022-08-22T13:06:00.024Z,7.82
2022-08-22T13:08:38.640Z,9.35
2022-08-22T13:11:22.576Z,8.70
2022-08-22T13:13:56.580Z,8.98
2022-08-22T13:16:26.164Z,10.10
2022-08-22T13:19:01.207Z,7.85
2022-08-22T13:21:43.381Z,10.68
2022-08-22T13:24:16.676Z,7.25
2022-08-22T13:26:50.706Z,8.50
2022-08-22T13:29:26.126Z,7.70
2022-08-22T13:32:01.964Z,7.88
2022-08-22T13:34:46.085Z,8.10
2022-08-22T13:37:24.652Z,9.35
2022-08-22T13:39:59.735Z,9.18
2022-08-22T13:42:31.173Z,10.10
2022-08-22T13:45:03.110Z,9.13
2022-08-22T13:47:34.813Z,9.73
2022-08-22T13:50:19.124Z,8.40
2022-08-22T13:53:07.017Z,10.95
2022-08-22T13:56:01.431Z,12.18
2022-08-22T13:58:42.068Z,12.63
2022-08-22T14:01:18.503Z,11.73
2022-08-22T14:03:55.376Z,11.68
2022-08-22T14:06:37.316Z,9.50
2022-08-22T14:09:42.693Z,11.50
2022-08-22T14:12:17.051Z,9.80
2022-08-22T14:14:49.297Z,10.98
2022-08-22T14:17:23.168Z,10.55
2022-08-22T14:20:11.219Z,10.50
2022-08-22T14:22:41.417Z,12.40
2022-08-22T14:25:18.469Z,11.90
2022-08-22T14:27:52.479Z,8.50
2022-08-22T14:30:24.434Z,10.63
2022-08-22T14:33:13.674Z,10.00
2022-08-22T14:35:53.809Z,10.82
2022-08-22T14:38:38.276Z,10.20
2022-08-22T14:43:32.003Z,9.45
2022-08-22T14:46:12.641Z,11.73
2022-08-22T14:49:28.659Z,10.35
2022-08-22T14:52:10.600Z,10.73
2022-08-22T14:54:46.298Z,9.32
2022-08-22T14:57:19.990Z,10.25
2022-08-22T14:59:51.590Z,10.52
2022-08-22T15:02:44.453Z,7.82
2022-08-22T15:05:21.394Z,8.10
2022-08-22T15:07:59.311Z,8.20
2022-08-22T15:10:32.926Z,9.80
2022-08-22T15:13:07.709Z,7.90
2022-08-22T15:15:49.338Z,8.45
2022-08-22T15:18:35.844Z,8.07
2022-08-22T15:21:18.202Z,8.63
2022-08-22T15:23:47.051Z,8.02
2022-08-22T15:26:50.077Z,7.88
2022-08-22T15:29:24.579Z,8.80
2022-08-22T15:32:02.589Z,9.18
2022-08-22T15:34:34.332Z,8.18
2022-08-22T15:37:17.594Z,7.43
2022-08-22T15:40:02.859Z,7.90
2022-08-22T15:42:48.853Z,8.57
2022-08-22T15:45:38.386Z,9.00
2022-08-22T15:48:24.350Z,8.38
2022-08-22T15:51:10.457Z,7.40
2022-08-22T15:53:43.311Z,9.23
2022-08-22T15:56:12.976Z,9.40
2022-08-22T15:58:48.559Z,7.03
2022-08-22T16:01:25.809Z,9.52
2022-08-22T16:04:12.416Z,8.55
2022-08-22T16:06:50.108Z,8.02
2022-08-22T16:09:44.952Z,5.55
2022-08-22T16:12:34.817Z,7.38
2022-08-22T16:15:05.946Z,8.43
2022-08-22T16:17:42.741Z,8.25
2022-08-22T16:20:09.943Z,6.75
2022-08-22T16:22:57.826Z,8.65
2022-08-22T16:25:46.327Z,7.05
2022-08-22T16:28:56.736Z,6.93
2022-08-22T16:33:51.218Z,8.65
2022-08-22T16:36:17.879Z,9.48
2022-08-22T16:38:49.374Z,8.23
2022-08-22T16:41:35.664Z,9.95
2022-08-22T16:44:30.179Z,8.52
2022-08-22T16:47:17.808Z,7.82
2022-08-22T16:49:50.330Z,8.30
2022-08-22T16:52:26.029Z,8.75
2022-08-22T16:55:30.955Z,7.65
2022-08-22T16:58:44.682Z,8.77
2022-08-22T17:01:23.651Z,7.72
2022-08-22T17:04:11.832Z,7.25
2022-08-22T17:07:16.630Z,7.70
2022-08-22T17:10:18.525Z,7.60
2022-08-22T17:13:29.892Z,7.95
2022-08-22T17:16:25.030Z,7.38
2022-08-22T17:18:57.543Z,7.55
2022-08-22T17:21:28.391Z,7.05
2022-08-22T17:24:32.261Z,7.40
2022-08-22T17:27:16.066Z,9.93
2022-08-22T17:30:01.801Z,8.68
2022-08-22T17:32:59.043Z,10.02
2022-08-22T17:35:55.138Z,8.10
2022-08-22T17:38:33.937Z,8.48
2022-08-22T17:41:03.865Z,8.57
2022-08-22T17:43:33.502Z,9.77
2022-08-22T17:46:44.938Z,9.18
2022-08-22T17:49:11.470Z,12.73
2022-08-22T17:52:17.433Z,12.02
2022-08-22T17:54:53.480Z,10.98
2022-08-22T17:57:32.010Z,10.50
2022-08-22T18:00:17.421Z,11.73
2022-08-22T18:03:00.634Z,9.45
2022-08-22T18:05:31.764Z,8.93
2022-08-22T18:08:08.365Z,8.95
2022-08-22T18:10:46.633Z,8.85
2022-08-22T18:13:33.653Z,9.40
2022-08-22T18:16:32.741Z,8.63
2022-08-22T18:19:21.502Z,9.80
2022-08-22T18:22:19.419Z,9.38
2022-08-22T18:24:58.221Z,8.90
2022-08-22T18:27:30.033Z,8.27
2022-08-22T18:30:13.782Z,8.00
2022-08-22T18:32:59.409Z,9.75
2022-08-22T18:35:49.835Z,8.90
2022-08-22T18:38:31.383Z,9.25
2022-08-22T18:41:16.246Z,9.10
2022-08-22T18:43:50.694Z,8.13
2022-08-22T18:46:38.403Z,7.30
2022-08-22T18:49:32.080Z,8.23
2022-08-22T18:52:31.995Z,8.00
2022-08-22T18:55:18.108Z,6.85
2022-08-22T18:58:06.840Z,6.75
2022-08-22T19:00:42.595Z,7.93
2022-08-22T19:03:36.429Z,8.07
2022-08-22T19:06:45.586Z,7.57
2022-08-22T19:09:52.552Z,8.60
2022-08-22T19:12:26.374Z,7.75
2022-08-22T19:15:07.891Z,7.95
2022-08-22T19:18:09.233Z,7.40
2022-08-22T19:21:23.129Z,8.25
2022-08-22T19:23:55.838Z,7.43
2022-08-22T19:26:40.364Z,7.13
2022-08-22T19:29:25.710Z,8.55
2022-08-22T19:31:58.394Z,6.75
2022-08-22T19:35:09.975Z,7.25
2022-08-22T19:38:07.430Z,6.93
2022-08-22T19:40:53.628Z,8.45
2022-08-22T19:43:36.207Z,7.20
2022-08-22T19:46:16.157Z,8.50
2022-08-22T19:48:57.856Z,8.45
2022-08-22T19:51:32.692Z,8.40
2022-08-22T19:54:17.361Z,8.80
2022-08-22T19:57:09.928Z,7.35
2022-08-22T20:00:02.435Z,9.13
2022-08-22T20:02:56.635Z,7.85
2022-08-22T20:06:04.707Z,7.72
2022-08-22T20:08:43.522Z,8.43
2022-08-22T20:11:49.588Z,8.60
2022-08-22T20:14:38.344Z,7.72
2022-08-22T20:17:15.302Z,6.38
2022-08-22T20:25:58.967Z,7.38
2022-08-22T20:29:10.122Z,7.40
2022-08-22T20:31:55.527Z,8.88
2022-08-22T20:34:33.990Z,9.07
2022-08-22T20:40:00.052Z,6.50
2022-08-22T20:42:48.830Z,8.70
2022-08-22T20:45:19.322Z,9.15
2022-08-22T20:47:51.270Z,6.47
2022-08-22T20:50:34.834Z,8.02
2022-08-22T20:53:11.658Z,7.93
2022-08-22T20:55:38.365Z,7.30
2022-08-22T20:58:23.039Z,6.68
2022-08-22T21:00:57.136Z,7.85
2022-08-22T21:03:36.419Z,6.75
2022-08-22T21:06:24.010Z,7.95
2022-08-22T21:09:30.322Z,7.55
2022-08-22T21:12:04.321Z,9.35
2022-08-22T21:14:47.244Z,8.57
2022-08-22T21:17:29.227Z,8.85
2022-08-22T21:20:27.151Z,9.23
2022-08-22T21:23:05.193Z,7.80
2022-08-22T21:26:06.584Z,8.73
2022-08-22T21:29:02.230Z,7.65
2022-08-22T21:31:46.934Z,7.93
2022-08-22T21:34:25.677Z,8.45
2022-08-22T21:36:58.341Z,9.77
2022-08-22T21:39:37.349Z,8.40
2022-08-22T21:42:06.376Z,8.05
2022-08-22T21:45:00.389Z,8.20
2022-08-22T21:47:31.196Z,8.27
2022-08-22T21:50:13.487Z,8.00
2022-08-22T21:53:02.182Z,8.73
2022-08-22T21:55:39.383Z,9.38
2022-08-22T21:58:09.013Z,7.55
2022-08-22T22:00:54.500Z,8.13
2022-08-22T22:03:35.740Z,9.10
2022-08-22T22:06:05.600Z,9.07
2022-08-22T22:08:32.880Z,7.55
2022-08-22T22:11:04.713Z,8.15
2022-08-22T22:16:08.902Z,7.47
2022-08-22T22:18:40.761Z,9.90
2022-08-22T22:21:10.653Z,9.18
2022-08-22T22:24:00.396Z,7.13
2022-08-22T22:29:29.801Z,9.85
2022-08-22T22:32:06.375Z,8.43
2022-08-22T22:34:49.811Z,8.27
2022-08-22T22:37:16.699Z,6.97
2022-08-22T22:39:43.501Z,8.65
2022-08-22T22:42:10.122Z,7.97
2022-08-22T22:44:36.899Z,8.63
2022-08-22T22:47:04.103Z,6.65
2022-08-22T22:49:32.100Z,8.05
2022-08-22T22:52:00.149Z,8.25
2022-08-22T22:54:27.193Z,8.50
2022-08-22T22:56:54.219Z,8.60
2022-08-22T22:59:26.770Z,8.43
2022-08-22T23:02:09.016Z,8.32
2022-08-22T23:04:39.320Z,8.95
2022-08-22T23:07:07.415Z,8.88
2022-08-22T23:09:38.614Z,9.40
2022-08-22T23:12:12.355Z,8.02
2022-08-22T23:14:38.949Z,7.90
2022-08-22T23:17:05.915Z,7.22
2022-08-22T23:19:32.979Z,8.15
2022-08-22T23:22:01.031Z,7.43
2022-08-22T23:24:29.445Z,6.68
2022-08-22T23:26:56.671Z,7.63
2022-08-22T23:29:23.298Z,7.10
2022-08-22T23:31:51.278Z,7.10
2022-08-22T23:34:24.274Z,7.38
2022-08-22T23:36:53.675Z,7.97
2022-08-22T23:39:22.123Z,7.38
2022-08-22T23:41:49.166Z,6.95
2022-08-22T23:44:18.628Z,8.23
2022-08-22T23:46:46.243Z,8.65
2022-08-22T23:49:13.542Z,6.82
2022-08-22T23:51:41.821Z,6.78
2022-08-22T23:54:12.094Z,7.70
2022-08-22T23:56:50.952Z,7.82
2022-08-22T23:59:20.890Z,8.80
